Portada
METAR-TAF:

METAR-TAF

Aeropuertos :

Uagadugú, Burkina Faso

Aeropuerto de Uagadugú

latitud: 12-21N, longitud: 001-31W, altitud: 316 m

Observación

El informe se hizo hace 1 hora y 16 minutos, a las 00:00 UTC
Viento 5 kt del este
Temperatura 20°C
Humedad 23%
Presión 1015 hPa
Visibilidad 10 km o más
sin nubes por debajo de 1500 m y sin presencia de cumulonimbus.

METAR: DFFD 240000Z 08005KT CAVOK 20/M02 Q1015 NOSIG

Hora: 01:16 (01:16 UTC)

Pronóstico

El informe se hizo hace 2 horas y 16 minutos, a las 23:00 UTC
Pronóstico válido del 24 a las 00 UTC al 25 a las 06 UTC
Viento 8 kt del este
Visibilidad: 8000 m
Temporalmente
del 24 a las 06 UTC al 24 a las 10 UTC
Visibilidad: 4000 m
Polvo extendido
Temporalmente
del 24 a las 17 UTC al 24 a las 20 UTC
Visibilidad: 4000 m
Polvo extendido

TAF: DFFD 232300Z 2400/2506 08008KT 8000 NSC TEMPO 2406/2410 4000 DU TEMPO 2417/2420 4000 DU

Observaciones y pronósticos meteorológicos de más de 4000 aeropuertos (mensajes METAR y TAF).

Los puntos amarillos y rojos representan las estaciones disponibles.

Ponga el ratón en el punto deseado para ver el nombre de la estación.

Haga clic para ver las observaciones y los pronósticos meteorológicos.

Para cambiar el mapa : haga clic en los botones verdes con una cruz de color negro para hacer un zoom, en el botón verde con un guión para alejar o en las flechas verdes para mapas adyacentes.


METAR-TAF: